sensor_id;sensor_type;location;lat;lon;timestamp;P1;durP1;ratioP1;P2;durP2;ratioP2
45842;SDS011;31563;51.744;8.252;2023-10-19T00:02:15;2.03;;;1.52;;
45842;SDS011;31563;51.744;8.252;2023-10-19T00:04:45;2.95;;;1.70;;
45842;SDS011;31563;51.744;8.252;2023-10-19T00:07:12;2.20;;;1.50;;
45842;SDS011;31563;51.744;8.252;2023-10-19T00:09:42;2.50;;;1.63;;
45842;SDS011;31563;51.744;8.252;2023-10-19T00:12:12;2.40;;;1.65;;
45842;SDS011;31563;51.744;8.252;2023-10-19T00:14:42;1.95;;;1.38;;
45842;SDS011;31563;51.744;8.252;2023-10-19T00:17:09;1.85;;;1.52;;
45842;SDS011;31563;51.744;8.252;2023-10-19T00:19:39;2.72;;;1.90;;
45842;SDS011;31563;51.744;8.252;2023-10-19T00:22:08;1.77;;;1.25;;
45842;SDS011;31563;51.744;8.252;2023-10-19T00:24:41;1.75;;;1.23;;
45842;SDS011;31563;51.744;8.252;2023-10-19T00:27:10;1.83;;;1.50;;
45842;SDS011;31563;51.744;8.252;2023-10-19T00:29:43;3.30;;;1.50;;
45842;SDS011;31563;51.744;8.252;2023-10-19T00:32:16;1.70;;;1.42;;
45842;SDS011;31563;51.744;8.252;2023-10-19T00:37:19;2.25;;;1.38;;
45842;SDS011;31563;51.744;8.252;2023-10-19T00:39:53;2.20;;;1.42;;
45842;SDS011;31563;51.744;8.252;2023-10-19T00:42:22;2.25;;;1.50;;
45842;SDS011;31563;51.744;8.252;2023-10-19T00:44:56;1.85;;;1.58;;
45842;SDS011;31563;51.744;8.252;2023-10-19T00:47:31;1.08;;;0.85;;
45842;SDS011;31563;51.744;8.252;2023-10-19T00:50:08;2.70;;;2.00;;
45842;SDS011;31563;51.744;8.252;2023-10-19T00:52:43;2.28;;;1.58;;
45842;SDS011;31563;51.744;8.252;2023-10-19T00:55:16;2.13;;;1.70;;
45842;SDS011;31563;51.744;8.252;2023-10-19T00:57:52;2.28;;;1.60;;
45842;SDS011;31563;51.744;8.252;2023-10-19T01:00:23;1.83;;;1.30;;
45842;SDS011;31563;51.744;8.252;2023-10-19T01:02:57;2.13;;;1.20;;
45842;SDS011;31563;51.744;8.252;2023-10-19T01:05:32;1.50;;;1.30;;
45842;SDS011;31563;51.744;8.252;2023-10-19T01:08:03;1.63;;;1.40;;
45842;SDS011;31563;51.744;8.252;2023-10-19T01:10:50;2.05;;;1.50;;
45842;SDS011;31563;51.744;8.252;2023-10-19T01:13:20;2.55;;;1.58;;
45842;SDS011;31563;51.744;8.252;2023-10-19T01:15:53;1.92;;;1.48;;
45842;SDS011;31563;51.744;8.252;2023-10-19T01:18:22;1.90;;;1.30;;
45842;SDS011;31563;51.744;8.252;2023-10-19T01:20:56;2.30;;;1.67;;
45842;SDS011;31563;51.744;8.252;2023-10-19T01:23:30;1.85;;;1.40;;
45842;SDS011;31563;51.744;8.252;2023-10-19T01:25:58;2.25;;;1.90;;
45842;SDS011;31563;51.744;8.252;2023-10-19T01:28:31;1.80;;;1.30;;
45842;SDS011;31563;51.744;8.252;2023-10-19T01:31:10;2.13;;;1.38;;
45842;SDS011;31563;51.744;8.252;2023-10-19T01:33:43;2.08;;;1.40;;
45842;SDS011;31563;51.744;8.252;2023-10-19T01:36:12;2.00;;;1.73;;
45842;SDS011;31563;51.744;8.252;2023-10-19T01:38:52;3.63;;;1.60;;
45842;SDS011;31563;51.744;8.252;2023-10-19T01:41:21;1.63;;;1.52;;
45842;SDS011;31563;51.744;8.252;2023-10-19T01:43:51;1.80;;;1.30;;
45842;SDS011;31563;51.744;8.252;2023-10-19T01:46:20;1.95;;;1.45;;
45842;SDS011;31563;51.744;8.252;2023-10-19T01:48:51;2.45;;;1.60;;
45842;SDS011;31563;51.744;8.252;2023-10-19T01:51:22;1.50;;;1.20;;
45842;SDS011;31563;51.744;8.252;2023-10-19T01:56:22;1.63;;;1.23;;
45842;SDS011;31563;51.744;8.252;2023-10-19T01:58:50;2.45;;;1.55;;
45842;SDS011;31563;51.744;8.252;2023-10-19T02:01:18;1.65;;;1.30;;
45842;SDS011;31563;51.744;8.252;2023-10-19T02:03:56;2.97;;;1.33;;
45842;SDS011;31563;51.744;8.252;2023-10-19T02:06:25;1.67;;;1.37;;
45842;SDS011;31563;51.744;8.252;2023-10-19T02:08:58;1.35;;;1.05;;
45842;SDS011;31563;51.744;8.252;2023-10-19T02:11:27;2.63;;;1.40;;
45842;SDS011;31563;51.744;8.252;2023-10-19T02:13:56;1.58;;;1.23;;
45842;SDS011;31563;51.744;8.252;2023-10-19T02:16:26;1.35;;;0.98;;
45842;SDS011;31563;51.744;8.252;2023-10-19T02:18:56;1.30;;;1.20;;
45842;SDS011;31563;51.744;8.252;2023-10-19T02:21:23;1.55;;;1.17;;
45842;SDS011;31563;51.744;8.252;2023-10-19T02:23:54;1.10;;;0.90;;
45842;SDS011;31563;51.744;8.252;2023-10-19T02:26:22;2.10;;;1.40;;
45842;SDS011;31563;51.744;8.252;2023-10-19T02:28:52;1.80;;;1.15;;
45842;SDS011;31563;51.744;8.252;2023-10-19T02:31:19;1.55;;;1.33;;
45842;SDS011;31563;51.744;8.252;2023-10-19T02:33:48;2.63;;;1.63;;
45842;SDS011;31563;51.744;8.252;2023-10-19T02:36:18;1.60;;;1.10;;
45842;SDS011;31563;51.744;8.252;2023-10-19T02:38:46;1.60;;;1.48;;
45842;SDS011;31563;51.744;8.252;2023-10-19T02:41:18;1.40;;;1.27;;
45842;SDS011;31563;51.744;8.252;2023-10-19T02:43:48;1.58;;;1.20;;
45842;SDS011;31563;51.744;8.252;2023-10-19T02:46:17;1.77;;;1.58;;
45842;SDS011;31563;51.744;8.252;2023-10-19T02:48:46;1.95;;;1.20;;
45842;SDS011;31563;51.744;8.252;2023-10-19T02:51:16;1.45;;;1.17;;
45842;SDS011;31563;51.744;8.252;2023-10-19T02:53:45;1.40;;;1.27;;
45842;SDS011;31563;51.744;8.252;2023-10-19T02:56:13;2.78;;;1.35;;
45842;SDS011;31563;51.744;8.252;2023-10-19T02:58:43;2.28;;;1.30;;
45842;SDS011;31563;51.744;8.252;2023-10-19T03:01:17;1.38;;;1.20;;
45842;SDS011;31563;51.744;8.252;2023-10-19T03:03:49;1.35;;;1.20;;
45842;SDS011;31563;51.744;8.252;2023-10-19T03:06:18;1.80;;;1.58;;
45842;SDS011;31563;51.744;8.252;2023-10-19T03:08:47;1.63;;;1.40;;
45842;SDS011;31563;51.744;8.252;2023-10-19T03:11:18;1.55;;;1.35;;
45842;SDS011;31563;51.744;8.252;2023-10-19T03:13:46;1.80;;;1.20;;
45842;SDS011;31563;51.744;8.252;2023-10-19T03:16:18;1.60;;;1.40;;
45842;SDS011;31563;51.744;8.252;2023-10-19T03:18:47;1.80;;;1.40;;
45842;SDS011;31563;51.744;8.252;2023-10-19T03:21:14;1.90;;;1.23;;
45842;SDS011;31563;51.744;8.252;2023-10-19T03:23:42;1.50;;;1.40;;
45842;SDS011;31563;51.744;8.252;2023-10-19T03:26:09;1.75;;;1.48;;
45842;SDS011;31563;51.744;8.252;2023-10-19T03:29:02;1.27;;;1.17;;
45842;SDS011;31563;51.744;8.252;2023-10-19T03:31:35;1.52;;;1.33;;
45842;SDS011;31563;51.744;8.252;2023-10-19T03:34:09;1.45;;;1.10;;
45842;SDS011;31563;51.744;8.252;2023-10-19T03:36:39;1.50;;;1.20;;
45842;SDS011;31563;51.744;8.252;2023-10-19T03:39:08;1.90;;;1.38;;
45842;SDS011;31563;51.744;8.252;2023-10-19T03:41:39;1.23;;;1.08;;
45842;SDS011;31563;51.744;8.252;2023-10-19T03:44:09;1.50;;;1.10;;
45842;SDS011;31563;51.744;8.252;2023-10-19T03:46:43;1.60;;;1.23;;
45842;SDS011;31563;51.744;8.252;2023-10-19T03:49:21;1.40;;;1.20;;
45842;SDS011;31563;51.744;8.252;2023-10-19T03:51:52;1.33;;;1.17;;
45842;SDS011;31563;51.744;8.252;2023-10-19T03:54:27;1.90;;;1.10;;
45842;SDS011;31563;51.744;8.252;2023-10-19T03:56:59;1.92;;;1.20;;
45842;SDS011;31563;51.744;8.252;2023-10-19T03:59:32;1.75;;;1.13;;
45842;SDS011;31563;51.744;8.252;2023-10-19T04:02:02;1.70;;;1.33;;
45842;SDS011;31563;51.744;8.252;2023-10-19T04:04:36;2.10;;;1.30;;
45842;SDS011;31563;51.744;8.252;2023-10-19T04:07:05;1.33;;;1.10;;
45842;SDS011;31563;51.744;8.252;2023-10-19T04:09:40;1.38;;;1.27;;
45842;SDS011;31563;51.744;8.252;2023-10-19T04:12:23;1.95;;;1.38;;
45842;SDS011;31563;51.744;8.252;2023-10-19T04:14:51;1.33;;;1.10;;
45842;SDS011;31563;51.744;8.252;2023-10-19T04:17:20;1.15;;;1.00;;
45842;SDS011;31563;51.744;8.252;2023-10-19T04:19:50;1.70;;;1.08;;
45842;SDS011;31563;51.744;8.252;2023-10-19T04:22:19;1.55;;;1.27;;
45842;SDS011;31563;51.744;8.252;2023-10-19T04:24:50;1.70;;;1.23;;
45842;SDS011;31563;51.744;8.252;2023-10-19T04:27:19;1.38;;;1.00;;
45842;SDS011;31563;51.744;8.252;2023-10-19T04:29:49;1.10;;;0.90;;
45842;SDS011;31563;51.744;8.252;2023-10-19T04:32:18;2.97;;;2.22;;
45842;SDS011;31563;51.744;8.252;2023-10-19T04:34:53;2.90;;;2.60;;
45842;SDS011;31563;51.744;8.252;2023-10-19T04:37:21;3.22;;;2.92;;
45842;SDS011;31563;51.744;8.252;2023-10-19T04:39:50;3.00;;;2.60;;
45842;SDS011;31563;51.744;8.252;2023-10-19T04:42:18;5.03;;;3.28;;
45842;SDS011;31563;51.744;8.252;2023-10-19T04:44:49;3.72;;;2.88;;
45842;SDS011;31563;51.744;8.252;2023-10-19T04:47:17;3.20;;;2.80;;
45842;SDS011;31563;51.744;8.252;2023-10-19T04:49:45;3.90;;;2.80;;
45842;SDS011;31563;51.744;8.252;2023-10-19T04:52:14;3.50;;;3.20;;
45842;SDS011;31563;51.744;8.252;2023-10-19T04:54:43;3.17;;;2.58;;
45842;SDS011;31563;51.744;8.252;2023-10-19T04:57:11;3.88;;;3.10;;
45842;SDS011;31563;51.744;8.252;2023-10-19T04:59:39;4.10;;;3.20;;
45842;SDS011;31563;51.744;8.252;2023-10-19T05:02:11;5.32;;;3.35;;
45842;SDS011;31563;51.744;8.252;2023-10-19T05:04:39;3.33;;;2.75;;
45842;SDS011;31563;51.744;8.252;2023-10-19T05:07:07;3.20;;;2.90;;
45842;SDS011;31563;51.744;8.252;2023-10-19T05:09:39;4.57;;;2.42;;
45842;SDS011;31563;51.744;8.252;2023-10-19T05:12:07;5.03;;;3.17;;
45842;SDS011;31563;51.744;8.252;2023-10-19T05:14:36;3.58;;;1.90;;
45842;SDS011;31563;51.744;8.252;2023-10-19T05:17:05;3.00;;;1.90;;
45842;SDS011;31563;51.744;8.252;2023-10-19T05:19:35;3.50;;;1.98;;
45842;SDS011;31563;51.744;8.252;2023-10-19T05:22:05;2.67;;;1.77;;
45842;SDS011;31563;51.744;8.252;2023-10-19T05:24:33;5.03;;;1.93;;
45842;SDS011;31563;51.744;8.252;2023-10-19T05:27:03;2.13;;;1.75;;
45842;SDS011;31563;51.744;8.252;2023-10-19T05:29:34;4.03;;;1.88;;
45842;SDS011;31563;51.744;8.252;2023-10-19T05:32:02;4.00;;;1.50;;
45842;SDS011;31563;51.744;8.252;2023-10-19T05:34:30;4.88;;;1.52;;
45842;SDS011;31563;51.744;8.252;2023-10-19T05:36:59;2.95;;;1.20;;
45842;SDS011;31563;51.744;8.252;2023-10-19T05:39:28;4.00;;;1.90;;
45842;SDS011;31563;51.744;8.252;2023-10-19T05:41:58;2.70;;;1.10;;
45842;SDS011;31563;51.744;8.252;2023-10-19T05:44:28;1.93;;;0.70;;
45842;SDS011;31563;51.744;8.252;2023-10-19T05:46:57;3.45;;;1.20;;
45842;SDS011;31563;51.744;8.252;2023-10-19T05:49:26;2.27;;;0.90;;
45842;SDS011;31563;51.744;8.252;2023-10-19T05:51:55;2.83;;;1.17;;
45842;SDS011;31563;51.744;8.252;2023-10-19T05:54:23;2.78;;;1.20;;
45842;SDS011;31563;51.744;8.252;2023-10-19T05:56:51;2.60;;;1.15;;
45842;SDS011;31563;51.744;8.252;2023-10-19T05:59:19;2.97;;;1.33;;
45842;SDS011;31563;51.744;8.252;2023-10-19T06:01:51;3.10;;;0.93;;
45842;SDS011;31563;51.744;8.252;2023-10-19T06:04:19;5.22;;;2.22;;
45842;SDS011;31563;51.744;8.252;2023-10-19T06:06:47;3.70;;;1.48;;
45842;SDS011;31563;51.744;8.252;2023-10-19T06:09:15;3.47;;;1.00;;
45842;SDS011;31563;51.744;8.252;2023-10-19T06:11:44;4.00;;;1.00;;
45842;SDS011;31563;51.744;8.252;2023-10-19T06:14:12;3.83;;;1.50;;
45842;SDS011;31563;51.744;8.252;2023-10-19T06:16:40;4.38;;;1.55;;
45842;SDS011;31563;51.744;8.252;2023-10-19T06:19:10;3.85;;;1.90;;
45842;SDS011;31563;51.744;8.252;2023-10-19T06:21:38;3.53;;;1.90;;
45842;SDS011;31563;51.744;8.252;2023-10-19T06:24:06;4.53;;;1.60;;
45842;SDS011;31563;51.744;8.252;2023-10-19T06:26:39;4.88;;;1.83;;
45842;SDS011;31563;51.744;8.252;2023-10-19T06:29:09;6.30;;;1.95;;
45842;SDS011;31563;51.744;8.252;2023-10-19T06:31:37;3.95;;;1.70;;
45842;SDS011;31563;51.744;8.252;2023-10-19T06:34:05;4.03;;;1.60;;
45842;SDS011;31563;51.744;8.252;2023-10-19T06:36:35;3.22;;;1.55;;
45842;SDS011;31563;51.744;8.252;2023-10-19T06:39:04;2.88;;;1.40;;
45842;SDS011;31563;51.744;8.252;2023-10-19T06:41:32;4.65;;;1.40;;
45842;SDS011;31563;51.744;8.252;2023-10-19T06:44:00;5.82;;;1.70;;
45842;SDS011;31563;51.744;8.252;2023-10-19T06:46:28;3.13;;;1.42;;
45842;SDS011;31563;51.744;8.252;2023-10-19T06:48:57;2.60;;;1.48;;
45842;SDS011;31563;51.744;8.252;2023-10-19T06:51:26;1.80;;;0.98;;
45842;SDS011;31563;51.744;8.252;2023-10-19T06:53:56;1.80;;;1.30;;
45842;SDS011;31563;51.744;8.252;2023-10-19T06:56:24;3.97;;;1.40;;
45842;SDS011;31563;51.744;8.252;2023-10-19T06:58:52;2.70;;;1.38;;
45842;SDS011;31563;51.744;8.252;2023-10-19T07:01:20;2.58;;;1.30;;
45842;SDS011;31563;51.744;8.252;2023-10-19T07:03:52;2.45;;;1.70;;
45842;SDS011;31563;51.744;8.252;2023-10-19T07:06:20;1.98;;;1.05;;
45842;SDS011;31563;51.744;8.252;2023-10-19T07:08:48;3.00;;;1.02;;
45842;SDS011;31563;51.744;8.252;2023-10-19T07:11:17;2.03;;;1.10;;
45842;SDS011;31563;51.744;8.252;2023-10-19T07:13:45;2.90;;;1.10;;
45842;SDS011;31563;51.744;8.252;2023-10-19T07:16:13;3.03;;;1.10;;
45842;SDS011;31563;51.744;8.252;2023-10-19T07:18:41;1.70;;;1.10;;
45842;SDS011;31563;51.744;8.252;2023-10-19T07:21:09;2.10;;;1.00;;
45842;SDS011;31563;51.744;8.252;2023-10-19T07:23:38;5.40;;;1.33;;
45842;SDS011;31563;51.744;8.252;2023-10-19T07:26:06;1.65;;;1.02;;
45842;SDS011;31563;51.744;8.252;2023-10-19T07:28:36;2.33;;;0.95;;
45842;SDS011;31563;51.744;8.252;2023-10-19T07:31:06;1.65;;;1.10;;
45842;SDS011;31563;51.744;8.252;2023-10-19T07:33:38;4.43;;;2.35;;
45842;SDS011;31563;51.744;8.252;2023-10-19T07:36:12;3.20;;;2.65;;
45842;SDS011;31563;51.744;8.252;2023-10-19T07:38:41;3.72;;;3.38;;
45842;SDS011;31563;51.744;8.252;2023-10-19T07:41:10;3.57;;;3.03;;
45842;SDS011;31563;51.744;8.252;2023-10-19T07:43:39;5.65;;;3.63;;
45842;SDS011;31563;51.744;8.252;2023-10-19T07:46:07;3.80;;;3.33;;
45842;SDS011;31563;51.744;8.252;2023-10-19T07:48:35;4.65;;;3.28;;
45842;SDS011;31563;51.744;8.252;2023-10-19T07:51:04;4.18;;;3.33;;
45842;SDS011;31563;51.744;8.252;2023-10-19T07:53:32;4.25;;;3.03;;
45842;SDS011;31563;51.744;8.252;2023-10-19T07:56:00;4.50;;;3.17;;
45842;SDS011;31563;51.744;8.252;2023-10-19T07:58:28;3.08;;;2.78;;
45842;SDS011;31563;51.744;8.252;2023-10-19T08:00:58;4.70;;;3.03;;
45842;SDS011;31563;51.744;8.252;2023-10-19T08:03:27;3.13;;;2.83;;
45842;SDS011;31563;51.744;8.252;2023-10-19T08:05:55;3.25;;;2.45;;
45842;SDS011;31563;51.744;8.252;2023-10-19T08:08:24;3.90;;;2.45;;
45842;SDS011;31563;51.744;8.252;2023-10-19T08:10:51;3.40;;;2.13;;
45842;SDS011;31563;51.744;8.252;2023-10-19T08:13:19;4.70;;;1.30;;
45842;SDS011;31563;51.744;8.252;2023-10-19T08:15:49;3.90;;;1.50;;
45842;SDS011;31563;51.744;8.252;2023-10-19T08:18:18;1.63;;;1.00;;
45842;SDS011;31563;51.744;8.252;2023-10-19T08:20:46;2.53;;;0.98;;
45842;SDS011;31563;51.744;8.252;2023-10-19T08:23:15;2.00;;;1.10;;
45842;SDS011;31563;51.744;8.252;2023-10-19T08:25:49;2.75;;;1.10;;
45842;SDS011;31563;51.744;8.252;2023-10-19T08:28:22;1.60;;;0.82;;
45842;SDS011;31563;51.744;8.252;2023-10-19T08:30:50;2.08;;;0.93;;
45842;SDS011;31563;51.744;8.252;2023-10-19T08:33:28;1.55;;;0.85;;
45842;SDS011;31563;51.744;8.252;2023-10-19T08:35:59;1.40;;;0.75;;
45842;SDS011;31563;51.744;8.252;2023-10-19T08:38:27;2.03;;;0.60;;
45842;SDS011;31563;51.744;8.252;2023-10-19T08:40:55;2.72;;;0.60;;
45842;SDS011;31563;51.744;8.252;2023-10-19T08:43:24;3.05;;;0.70;;
45842;SDS011;31563;51.744;8.252;2023-10-19T08:45:55;2.17;;;0.57;;
45842;SDS011;31563;51.744;8.252;2023-10-19T08:48:23;1.50;;;0.73;;
45842;SDS011;31563;51.744;8.252;2023-10-19T08:50:53;2.05;;;1.00;;
45842;SDS011;31563;51.744;8.252;2023-10-19T08:53:22;3.47;;;0.80;;
45842;SDS011;31563;51.744;8.252;2023-10-19T08:55:51;0.95;;;0.60;;
45842;SDS011;31563;51.744;8.252;2023-10-19T08:58:20;1.93;;;0.90;;
45842;SDS011;31563;51.744;8.252;2023-10-19T09:00:49;1.52;;;0.80;;
45842;SDS011;31563;51.744;8.252;2023-10-19T09:03:21;1.90;;;0.52;;
45842;SDS011;31563;51.744;8.252;2023-10-19T09:08:20;2.40;;;0.73;;
45842;SDS011;31563;51.744;8.252;2023-10-19T09:10:49;1.77;;;0.60;;
45842;SDS011;31563;51.744;8.252;2023-10-19T09:13:20;2.17;;;0.63;;
45842;SDS011;31563;51.744;8.252;2023-10-19T09:15:49;2.08;;;0.60;;
45842;SDS011;31563;51.744;8.252;2023-10-19T09:18:21;1.33;;;0.50;;
45842;SDS011;31563;51.744;8.252;2023-10-19T09:20:51;1.75;;;0.80;;
45842;SDS011;31563;51.744;8.252;2023-10-19T09:23:22;1.70;;;0.63;;
45842;SDS011;31563;51.744;8.252;2023-10-19T09:25:51;2.00;;;0.65;;
45842;SDS011;31563;51.744;8.252;2023-10-19T09:28:20;1.30;;;0.60;;
45842;SDS011;31563;51.744;8.252;2023-10-19T09:30:50;1.92;;;0.50;;
45842;SDS011;31563;51.744;8.252;2023-10-19T09:33:18;1.85;;;1.35;;
45842;SDS011;31563;51.744;8.252;2023-10-19T09:35:48;2.80;;;1.10;;
45842;SDS011;31563;51.744;8.252;2023-10-19T09:38:20;3.20;;;2.00;;
45842;SDS011;31563;51.744;8.252;2023-10-19T09:40:48;2.95;;;1.73;;
45842;SDS011;31563;51.744;8.252;2023-10-19T09:43:24;5.18;;;2.40;;
45842;SDS011;31563;51.744;8.252;2023-10-19T09:46:05;3.80;;;2.50;;
45842;SDS011;31563;51.744;8.252;2023-10-19T09:48:36;5.38;;;2.10;;
45842;SDS011;31563;51.744;8.252;2023-10-19T09:51:08;3.05;;;2.28;;
45842;SDS011;31563;51.744;8.252;2023-10-19T09:53:41;2.90;;;2.10;;
45842;SDS011;31563;51.744;8.252;2023-10-19T09:56:12;3.67;;;1.77;;
45842;SDS011;31563;51.744;8.252;2023-10-19T09:58:45;4.90;;;2.45;;
45842;SDS011;31563;51.744;8.252;2023-10-19T10:01:15;4.97;;;2.00;;
45842;SDS011;31563;51.744;8.252;2023-10-19T10:03:48;2.22;;;1.63;;
45842;SDS011;31563;51.744;8.252;2023-10-19T10:06:27;3.13;;;2.10;;
45842;SDS011;31563;51.744;8.252;2023-10-19T10:08:58;3.95;;;1.65;;
45842;SDS011;31563;51.744;8.252;2023-10-19T10:11:29;3.13;;;1.95;;
45842;SDS011;31563;51.744;8.252;2023-10-19T10:13:57;2.65;;;1.70;;
45842;SDS011;31563;51.744;8.252;2023-10-19T10:16:26;2.38;;;1.60;;
45842;SDS011;31563;51.744;8.252;2023-10-19T10:18:57;2.17;;;1.70;;
45842;SDS011;31563;51.744;8.252;2023-10-19T10:21:27;2.60;;;1.70;;
45842;SDS011;31563;51.744;8.252;2023-10-19T10:23:57;3.03;;;1.55;;
45842;SDS011;31563;51.744;8.252;2023-10-19T10:26:30;3.20;;;1.83;;
45842;SDS011;31563;51.744;8.252;2023-10-19T10:29:21;3.28;;;1.90;;
45842;SDS011;31563;51.744;8.252;2023-10-19T10:31:50;3.97;;;1.60;;
45842;SDS011;31563;51.744;8.252;2023-10-19T10:37:11;2.75;;;1.60;;
45842;SDS011;31563;51.744;8.252;2023-10-19T10:39:42;3.05;;;2.10;;
45842;SDS011;31563;51.744;8.252;2023-10-19T10:42:11;5.13;;;2.00;;
45842;SDS011;31563;51.744;8.252;2023-10-19T10:44:41;4.60;;;2.03;;
45842;SDS011;31563;51.744;8.252;2023-10-19T10:47:10;3.73;;;2.03;;
45842;SDS011;31563;51.744;8.252;2023-10-19T10:49:46;4.30;;;1.92;;
45842;SDS011;31563;51.744;8.252;2023-10-19T10:52:22;2.22;;;1.67;;
45842;SDS011;31563;51.744;8.252;2023-10-19T10:54:57;1.92;;;1.45;;
45842;SDS011;31563;51.744;8.252;2023-10-19T11:00:03;1.90;;;1.45;;
45842;SDS011;31563;51.744;8.252;2023-10-19T11:02:34;3.63;;;1.60;;
45842;SDS011;31563;51.744;8.252;2023-10-19T11:05:03;5.07;;;1.95;;
45842;SDS011;31563;51.744;8.252;2023-10-19T11:07:32;4.37;;;1.40;;
45842;SDS011;31563;51.744;8.252;2023-10-19T11:10:01;3.45;;;1.40;;
45842;SDS011;31563;51.744;8.252;2023-10-19T11:12:29;4.38;;;2.08;;
45842;SDS011;31563;51.744;8.252;2023-10-19T11:14:57;2.28;;;1.67;;
45842;SDS011;31563;51.744;8.252;2023-10-19T11:17:28;3.20;;;1.58;;
45842;SDS011;31563;51.744;8.252;2023-10-19T11:19:58;3.42;;;1.67;;
45842;SDS011;31563;51.744;8.252;2023-10-19T11:22:27;2.33;;;1.58;;
45842;SDS011;31563;51.744;8.252;2023-10-19T11:24:55;4.00;;;1.58;;
45842;SDS011;31563;51.744;8.252;2023-10-19T11:27:44;4.18;;;1.42;;
45842;SDS011;31563;51.744;8.252;2023-10-19T11:30:13;3.00;;;1.13;;
45842;SDS011;31563;51.744;8.252;2023-10-19T11:32:49;2.90;;;1.20;;
45842;SDS011;31563;51.744;8.252;2023-10-19T11:35:19;1.75;;;0.98;;
45842;SDS011;31563;51.744;8.252;2023-10-19T11:37:47;2.95;;;1.15;;
45842;SDS011;31563;51.744;8.252;2023-10-19T11:40:16;2.23;;;1.10;;
45842;SDS011;31563;51.744;8.252;2023-10-19T11:42:46;2.75;;;1.08;;
45842;SDS011;31563;51.744;8.252;2023-10-19T11:45:14;4.15;;;1.10;;
45842;SDS011;31563;51.744;8.252;2023-10-19T11:47:43;3.53;;;1.25;;
45842;SDS011;31563;51.744;8.252;2023-10-19T11:50:11;2.30;;;1.10;;
45842;SDS011;31563;51.744;8.252;2023-10-19T11:55:09;1.60;;;0.88;;
45842;SDS011;31563;51.744;8.252;2023-10-19T11:57:39;1.88;;;0.90;;
45842;SDS011;31563;51.744;8.252;2023-10-19T12:00:11;2.65;;;0.93;;
45842;SDS011;31563;51.744;8.252;2023-10-19T12:02:48;3.20;;;0.93;;
45842;SDS011;31563;51.744;8.252;2023-10-19T12:05:18;3.35;;;0.90;;
45842;SDS011;31563;51.744;8.252;2023-10-19T12:07:46;1.35;;;0.90;;
45842;SDS011;31563;51.744;8.252;2023-10-19T12:10:14;1.92;;;1.00;;
45842;SDS011;31563;51.744;8.252;2023-10-19T12:12:44;2.40;;;1.02;;
45842;SDS011;31563;51.744;8.252;2023-10-19T12:15:29;3.08;;;0.93;;
45842;SDS011;31563;51.744;8.252;2023-10-19T12:17:58;2.38;;;0.80;;
45842;SDS011;31563;51.744;8.252;2023-10-19T12:20:28;2.45;;;0.88;;
45842;SDS011;31563;51.744;8.252;2023-10-19T12:22:57;2.53;;;0.90;;
45842;SDS011;31563;51.744;8.252;2023-10-19T12:25:27;2.53;;;0.70;;
45842;SDS011;31563;51.744;8.252;2023-10-19T12:28:18;2.00;;;0.80;;
45842;SDS011;31563;51.744;8.252;2023-10-19T12:30:48;2.97;;;0.80;;
45842;SDS011;31563;51.744;8.252;2023-10-19T12:33:16;2.47;;;0.85;;
45842;SDS011;31563;51.744;8.252;2023-10-19T12:35:46;1.88;;;0.85;;
45842;SDS011;31563;51.744;8.252;2023-10-19T12:38:20;1.77;;;0.82;;
45842;SDS011;31563;51.744;8.252;2023-10-19T12:40:48;2.03;;;0.60;;
45842;SDS011;31563;51.744;8.252;2023-10-19T12:43:18;3.22;;;1.10;;
45842;SDS011;31563;51.744;8.252;2023-10-19T12:45:49;1.30;;;0.60;;
45842;SDS011;31563;51.744;8.252;2023-10-19T12:48:20;1.73;;;0.75;;
45842;SDS011;31563;51.744;8.252;2023-10-19T12:50:48;1.88;;;0.88;;
45842;SDS011;31563;51.744;8.252;2023-10-19T12:53:16;1.33;;;0.55;;
45842;SDS011;31563;51.744;8.252;2023-10-19T12:55:44;4.13;;;0.80;;
45842;SDS011;31563;51.744;8.252;2023-10-19T12:58:12;3.15;;;1.00;;
45842;SDS011;31563;51.744;8.252;2023-10-19T13:00:46;1.38;;;0.60;;
45842;SDS011;31563;51.744;8.252;2023-10-19T13:03:16;1.80;;;0.60;;
45842;SDS011;31563;51.744;8.252;2023-10-19T13:05:45;1.27;;;0.60;;
45842;SDS011;31563;51.744;8.252;2023-10-19T13:08:13;2.42;;;0.93;;
45842;SDS011;31563;51.744;8.252;2023-10-19T13:10:42;1.50;;;0.73;;
45842;SDS011;31563;51.744;8.252;2023-10-19T13:13:11;2.33;;;0.70;;
45842;SDS011;31563;51.744;8.252;2023-10-19T13:18:11;1.67;;;0.80;;
45842;SDS011;31563;51.744;8.252;2023-10-19T13:20:47;1.80;;;0.70;;
45842;SDS011;31563;51.744;8.252;2023-10-19T13:23:15;1.45;;;0.60;;
45842;SDS011;31563;51.744;8.252;2023-10-19T13:25:47;0.95;;;0.57;;
45842;SDS011;31563;51.744;8.252;2023-10-19T13:28:20;1.42;;;0.68;;
45842;SDS011;31563;51.744;8.252;2023-10-19T13:30:49;1.58;;;0.70;;
45842;SDS011;31563;51.744;8.252;2023-10-19T13:33:20;2.15;;;0.70;;
45842;SDS011;31563;51.744;8.252;2023-10-19T13:35:51;2.03;;;0.60;;
45842;SDS011;31563;51.744;8.252;2023-10-19T13:38:19;1.13;;;0.70;;
45842;SDS011;31563;51.744;8.252;2023-10-19T13:40:47;1.23;;;0.50;;
45842;SDS011;31563;51.744;8.252;2023-10-19T13:43:16;1.57;;;0.50;;
45842;SDS011;31563;51.744;8.252;2023-10-19T13:45:46;1.25;;;0.43;;
45842;SDS011;31563;51.744;8.252;2023-10-19T13:48:15;2.30;;;0.85;;
45842;SDS011;31563;51.744;8.252;2023-10-19T13:50:44;1.80;;;0.57;;
45842;SDS011;31563;51.744;8.252;2023-10-19T13:53:16;2.90;;;0.90;;
45842;SDS011;31563;51.744;8.252;2023-10-19T13:55:44;1.67;;;0.60;;
45842;SDS011;31563;51.744;8.252;2023-10-19T13:58:12;1.10;;;0.60;;
45842;SDS011;31563;51.744;8.252;2023-10-19T14:00:41;2.05;;;0.50;;
45842;SDS011;31563;51.744;8.252;2023-10-19T14:03:10;4.00;;;0.80;;
45842;SDS011;31563;51.744;8.252;2023-10-19T14:05:40;1.50;;;0.75;;
45842;SDS011;31563;51.744;8.252;2023-10-19T14:08:15;3.58;;;2.08;;
45842;SDS011;31563;51.744;8.252;2023-10-19T14:10:44;3.65;;;1.98;;
45842;SDS011;31563;51.744;8.252;2023-10-19T14:13:13;3.05;;;1.40;;
45842;SDS011;31563;51.744;8.252;2023-10-19T14:15:41;3.95;;;1.92;;
45842;SDS011;31563;51.744;8.252;2023-10-19T14:18:10;4.50;;;1.65;;
45842;SDS011;31563;51.744;8.252;2023-10-19T14:20:38;3.28;;;1.50;;
45842;SDS011;31563;51.744;8.252;2023-10-19T14:23:07;3.10;;;1.50;;
45842;SDS011;31563;51.744;8.252;2023-10-19T14:25:39;2.55;;;1.15;;
45842;SDS011;31563;51.744;8.252;2023-10-19T14:28:08;4.78;;;1.33;;
45842;SDS011;31563;51.744;8.252;2023-10-19T14:30:38;2.30;;;1.55;;
45842;SDS011;31563;51.744;8.252;2023-10-19T14:33:05;3.35;;;1.13;;
45842;SDS011;31563;51.744;8.252;2023-10-19T14:35:37;2.30;;;0.85;;
45842;SDS011;31563;51.744;8.252;2023-10-19T14:38:08;3.63;;;1.20;;
45842;SDS011;31563;51.744;8.252;2023-10-19T14:40:41;2.33;;;0.98;;
45842;SDS011;31563;51.744;8.252;2023-10-19T14:43:11;2.72;;;1.10;;
45842;SDS011;31563;51.744;8.252;2023-10-19T14:45:40;2.22;;;1.17;;
45842;SDS011;31563;51.744;8.252;2023-10-19T14:48:08;3.10;;;1.20;;
45842;SDS011;31563;51.744;8.252;2023-10-19T14:50:37;2.65;;;1.02;;
45842;SDS011;31563;51.744;8.252;2023-10-19T14:53:05;2.30;;;1.10;;
45842;SDS011;31563;51.744;8.252;2023-10-19T14:55:33;3.17;;;1.00;;
45842;SDS011;31563;51.744;8.252;2023-10-19T14:58:03;2.47;;;1.20;;
45842;SDS011;31563;51.744;8.252;2023-10-19T15:00:33;1.67;;;1.10;;
45842;SDS011;31563;51.744;8.252;2023-10-19T15:03:03;2.17;;;1.00;;
45842;SDS011;31563;51.744;8.252;2023-10-19T15:05:35;3.08;;;1.08;;
45842;SDS011;31563;51.744;8.252;2023-10-19T15:08:04;2.20;;;0.98;;
45842;SDS011;31563;51.744;8.252;2023-10-19T15:10:34;2.33;;;1.08;;
45842;SDS011;31563;51.744;8.252;2023-10-19T15:13:05;2.10;;;1.00;;
45842;SDS011;31563;51.744;8.252;2023-10-19T15:15:33;3.42;;;1.10;;
45842;SDS011;31563;51.744;8.252;2023-10-19T15:18:00;4.07;;;1.23;;
45842;SDS011;31563;51.744;8.252;2023-10-19T15:20:29;4.22;;;1.10;;
45842;SDS011;31563;51.744;8.252;2023-10-19T15:22:59;3.10;;;1.20;;
45842;SDS011;31563;51.744;8.252;2023-10-19T15:25:27;3.13;;;1.08;;